Time,TemperatureF,DewpointF,PressureIn,WindDirection,WindDirectionDegrees,WindSpeedMPH,WindSpeedGustMPH,Humidity,HourlyPrecipIn,Conditions,Clouds,dailyrainin,SoftwareType,DateUTC
2013-01-02 00:01:00,46.2,-3.6,30.11,NNE,28,3.6,5.8,12,0.00,,,0.00,VWS V14.01,2013-01-02 08:01:00,
2013-01-02 00:06:00,46.2,-3.6,30.11,North,357,3.6,5.8,12,0.00,,,0.00,VWS V14.01,2013-01-02 08:06:00,
2013-01-02 00:11:00,46.2,-3.6,30.11,NE,42,8.1,8.1,12,0.00,,,0.00,VWS V14.01,2013-01-02 08:11:00,
2013-01-02 00:16:00,46.0,-3.7,30.11,ENE,65,5.4,5.8,12,0.00,,,0.00,VWS V14.01,2013-01-02 08:16:00,
2013-01-02 00:21:00,45.9,-3.9,30.11,NNE,19,5.8,8.3,12,0.00,,,0.00,VWS V14.01,2013-01-02 08:21:00,
2013-01-02 00:27:00,45.7,-4.0,30.08,East,84,4.0,8.1,12,0.00,,,0.00,VWS V14.01,2013-01-02 08:27:00,
2013-01-02 00:32:00,45.5,-4.2,30.08,NNE,33,2.7,6.3,12,0.00,,,0.00,VWS V14.01,2013-01-02 08:32:00,
2013-01-02 00:37:00,45.1,-4.4,30.08,NE,42,4.0,4.9,12,0.00,,,0.00,VWS V14.01,2013-01-02 08:37:00,
2013-01-02 00:42:00,45.0,-4.6,30.08,North,0,2.2,3.1,12,0.00,,,0.00,VWS V14.01,2013-01-02 08:42:00,
2013-01-02 00:47:00,44.8,-4.7,30.08,SSE,151,4.0,7.6,12,0.00,,,0.00,VWS V14.01,2013-01-02 08:47:00,
2013-01-02 00:52:00,44.8,-4.7,30.08,NNE,33,8.7,8.7,12,0.00,,,0.00,VWS V14.01,2013-01-02 08:52:00,
2013-01-02 00:57:00,44.6,-4.9,30.11,SE,124,3.1,3.1,12,0.00,,,0.00,VWS V14.01,2013-01-02 08:57:00,
2013-01-02 01:02:00,44.2,-3.5,30.11,South,191,0.0,4.0,13,0.00,,,0.00,VWS V14.01,2013-01-02 09:02:00,
2013-01-02 01:07:00,44.1,-3.6,30.11,SE,134,2.7,2.7,13,0.00,,,0.00,VWS V14.01,2013-01-02 09:07:00,
2013-01-02 01:12:00,43.9,-3.8,30.11,SE,133,2.2,3.1,13,0.00,,,0.00,VWS V14.01,2013-01-02 09:12:00,
2013-01-02 01:17:00,43.5,-4.1,30.11,SE,133,0.0,0.0,13,0.00,,,0.00,VWS V14.01,2013-01-02 09:17:00,
2013-01-02 01:22:00,43.0,-4.5,30.11,WSW,257,0.0,2.2,13,0.00,,,0.00,VWS V14.01,2013-01-02 09:22:00,
2013-01-02 01:27:00,42.8,-4.6,30.08,East,86,2.2,5.4,13,0.00,,,0.00,VWS V14.01,2013-01-02 09:27:00,
2013-01-02 01:32:00,42.6,-4.8,30.08,SSE,168,0.0,0.0,13,0.00,,,0.00,VWS V14.01,2013-01-02 09:32:00,
2013-01-02 01:37:00,42.4,-4.9,30.08,East,94,0.0,2.7,13,0.00,,,0.00,VWS V14.01,2013-01-02 09:37:00,
2013-01-02 01:42:00,41.9,-5.3,30.08,NE,44,0.0,2.7,13,0.00,,,0.00,VWS V14.01,2013-01-02 09:42:00,
2013-01-02 01:47:00,41.5,-5.6,30.08,North,3,3.6,3.6,13,0.00,,,0.00,VWS V14.01,2013-01-02 09:47:00,
2013-01-02 01:52:00,41.5,-5.6,30.08,NE,42,6.7,6.7,13,0.00,,,0.00,VWS V14.01,2013-01-02 09:52:00,
2013-01-02 01:57:00,41.7,-5.5,30.08,SE,131,0.0,0.0,13,0.00,,,0.00,VWS V14.01,2013-01-02 09:57:00,
2013-01-02 02:02:00,41.7,-5.5,30.08,East,81,0.0,0.0,13,0.00,,,0.00,VWS V14.01,2013-01-02 10:02:00,
2013-01-02 02:07:00,41.5,-5.6,30.08,ESE,106,2.7,2.7,13,0.00,,,0.00,VWS V14.01,2013-01-02 10:07:00,
2013-01-02 02:12:00,41.5,-5.6,30.08,SE,140,3.1,4.0,13,0.00,,,0.00,VWS V14.01,2013-01-02 10:12:00,
2013-01-02 02:17:00,41.7,-5.5,30.08,North,11,3.6,8.1,13,0.00,,,0.00,VWS V14.01,2013-01-02 10:17:00,
2013-01-02 02:22:00,41.7,-5.5,30.08,NNW,344,4.0,8.3,13,0.00,,,0.00,VWS V14.01,2013-01-02 10:22:00,
2013-01-02 02:27:00,41.9,-5.3,30.08,North,9,6.3,6.3,13,0.00,,,0.00,VWS V14.01,2013-01-02 10:27:00,
2013-01-02 02:32:00,42.1,-5.2,30.08,ENE,74,2.2,2.2,13,0.00,,,0.00,VWS V14.01,2013-01-02 10:32:00,
2013-01-02 02:37:00,41.9,-1.0,30.08,NNW,336,0.0,3.6,16,0.00,,,0.00,VWS V14.01,2013-01-02 10:37:00,
2013-01-02 02:42:00,41.9,-1.0,30.08,East,86,0.0,0.0,16,0.00,,,0.00,VWS V14.01,2013-01-02 10:42:00,
2013-01-02 02:47:00,41.9,-1.0,30.08,East,99,2.7,2.7,16,0.00,,,0.00,VWS V14.01,2013-01-02 10:47:00,
2013-01-02 02:52:00,41.7,-1.2,30.08,NNE,31,3.6,4.5,16,0.00,,,0.00,VWS V14.01,2013-01-02 10:52:00,
2013-01-02 02:57:00,41.7,-1.2,30.08,ESE,115,0.0,4.0,16,0.00,,,0.00,VWS V14.01,2013-01-02 10:57:00,
2013-01-02 03:02:00,41.9,-1.0,30.08,SE,133,2.2,2.2,16,0.00,,,0.00,VWS V14.01,2013-01-02 11:02:00,
2013-01-02 03:07:00,42.1,-0.9,30.08,ENE,68,3.1,3.1,16,0.00,,,0.00,VWS V14.01,2013-01-02 11:07:00,
2013-01-02 03:12:00,42.1,-0.9,30.08,ENE,76,4.9,4.9,16,0.00,,,0.00,VWS V14.01,2013-01-02 11:12:00,
2013-01-02 03:17:00,42.1,-0.9,30.08,NE,53,6.3,6.3,16,0.00,,,0.00,VWS V14.01,2013-01-02 11:17:00,
2013-01-02 03:22:00,42.1,-0.9,30.08,NNW,333,5.8,8.3,16,0.00,,,0.00,VWS V14.01,2013-01-02 11:22:00,
2013-01-02 03:27:00,42.1,-0.9,30.08,NNE,30,4.0,5.8,16,0.00,,,0.00,VWS V14.01,2013-01-02 11:27:00,
2013-01-02 03:32:00,41.9,-1.0,30.08,NE,36,2.7,3.6,16,0.00,,,0.00,VWS V14.01,2013-01-02 11:32:00,
2013-01-02 03:37:00,41.9,-1.0,30.08,NNW,340,8.1,8.1,16,0.00,,,0.00,VWS V14.01,2013-01-02 11:37:00,
2013-01-02 03:42:00,42.1,-0.9,30.05,NE,47,7.6,10.5,16,0.00,,,0.00,VWS V14.01,2013-01-02 11:42:00,
2013-01-02 03:47:00,42.1,-0.9,30.05,NNE,30,4.9,4.9,16,0.00,,,0.00,VWS V14.01,2013-01-02 11:47:00,
2013-01-02 03:52:00,42.1,-0.9,30.05,NNE,20,7.6,8.3,16,0.00,,,0.00,VWS V14.01,2013-01-02 11:52:00,
2013-01-02 03:57:00,42.1,-0.9,30.05,NE,41,6.3,6.7,16,0.00,,,0.00,VWS V14.01,2013-01-02 11:57:00,
2013-01-02 04:02:00,42.1,-0.9,30.05,East,83,4.9,7.6,16,0.00,,,0.00,VWS V14.01,2013-01-02 12:02:00,
2013-01-02 04:07:00,42.1,-0.9,30.05,NNE,27,3.1,6.3,16,0.00,,,0.00,VWS V14.01,2013-01-02 12:07:00,
2013-01-02 04:12:00,42.1,-0.9,30.05,WSW,258,2.7,2.7,16,0.00,,,0.00,VWS V14.01,2013-01-02 12:12:00,
2013-01-02 04:17:00,41.9,-1.0,30.05,NNW,343,4.9,4.9,16,0.00,,,0.00,VWS V14.01,2013-01-02 12:17:00,
2013-01-02 04:22:00,41.7,-1.2,30.05,NNE,23,4.0,5.8,16,0.00,,,0.00,VWS V14.01,2013-01-02 12:22:00,
2013-01-02 04:27:00,41.7,-1.2,30.05,NE,43,5.4,5.8,16,0.00,,,0.00,VWS V14.01,2013-01-02 12:27:00,
2013-01-02 04:32:00,41.7,-1.2,30.05,NNE,33,7.6,8.1,16,0.00,,,0.00,VWS V14.01,2013-01-02 12:32:00,
2013-01-02 04:37:00,41.7,-1.2,30.05,ENE,60,7.6,7.6,16,0.00,,,0.00,VWS V14.01,2013-01-02 12:37:00,
2013-01-02 04:42:00,41.7,-1.2,30.05,East,94,3.6,8.3,16,0.00,,,0.00,VWS V14.01,2013-01-02 12:42:00,
2013-01-02 04:47:00,41.9,-1.0,30.05,NNE,29,4.0,8.1,16,0.00,,,0.00,VWS V14.01,2013-01-02 12:47:00,
2013-01-02 04:52:00,42.1,-0.9,30.05,NNW,339,4.0,4.0,16,0.00,,,0.00,VWS V14.01,2013-01-02 12:52:00,
2013-01-02 04:57:00,42.1,-0.9,30.02,ENE,60,5.4,10.1,16,0.00,,,0.00,VWS V14.01,2013-01-02 12:57:00,
2013-01-02 05:02:00,42.1,-0.9,30.02,NW,317,3.1,4.0,16,0.00,,,0.00,VWS V14.01,2013-01-02 13:02:00,
2013-01-02 05:07:00,42.1,-0.9,30.02,ENE,77,4.9,5.8,16,0.00,,,0.00,VWS V14.01,2013-01-02 13:07:00,
2013-01-02 05:12:00,42.1,-0.9,30.05,NE,48,6.3,6.7,16,0.00,,,0.00,VWS V14.01,2013-01-02 13:12:00,
2013-01-02 05:17:00,41.9,-1.0,30.05,NE,36,3.1,5.8,16,0.00,,,0.00,VWS V14.01,2013-01-02 13:17:00,
2013-01-02 05:22:00,41.9,-1.0,30.05,North,2,5.8,5.8,16,0.00,,,0.00,VWS V14.01,2013-01-02 13:22:00,
2013-01-02 05:27:00,41.9,-1.0,30.05,NNE,16,3.1,5.4,16,0.00,,,0.00,VWS V14.01,2013-01-02 13:27:00,
2013-01-02 05:32:00,41.9,-1.0,30.05,ENE,62,2.7,3.1,16,0.00,,,0.00,VWS V14.01,2013-01-02 13:32:00,
2013-01-02 05:37:00,41.9,-1.0,30.05,North,357,3.6,6.3,16,0.00,,,0.00,VWS V14.01,2013-01-02 13:37:00,
2013-01-02 05:42:00,41.9,-1.0,30.05,NNE,19,5.4,5.4,16,0.00,,,0.00,VWS V14.01,2013-01-02 13:42:00,
2013-01-02 05:47:00,41.9,-1.0,30.05,ENE,72,4.5,4.9,16,0.00,,,0.00,VWS V14.01,2013-01-02 13:47:00,
2013-01-02 05:52:00,41.9,-1.0,30.05,NE,55,3.1,5.8,16,0.00,,,0.00,VWS V14.01,2013-01-02 13:52:00,
2013-01-02 05:57:00,42.1,-0.9,30.05,ENE,66,3.6,3.6,16,0.00,,,0.00,VWS V14.01,2013-01-02 13:57:00,
2013-01-02 06:02:00,41.9,-1.0,30.05,NE,43,5.8,5.8,16,0.00,,,0.00,VWS V14.01,2013-01-02 14:02:00,
2013-01-02 06:07:00,42.1,-0.9,30.05,East,82,3.1,3.1,16,0.00,,,0.00,VWS V14.01,2013-01-02 14:07:00,
2013-01-02 06:12:00,42.1,-0.9,30.05,ESE,118,6.3,6.3,16,0.00,,,0.00,VWS V14.01,2013-01-02 14:12:00,
2013-01-02 06:17:00,42.1,-0.9,30.05,SE,125,5.8,5.8,16,0.00,,,0.00,VWS V14.01,2013-01-02 14:17:00,
2013-01-02 06:22:00,42.3,-0.7,30.05,ESE,112,2.7,5.8,16,0.00,,,0.00,VWS V14.01,2013-01-02 14:22:00,
2013-01-02 06:27:00,42.3,-0.7,30.08,NE,38,3.1,3.1,16,0.00,,,0.00,VWS V14.01,2013-01-02 14:27:00,
2013-01-02 06:32:00,42.3,-0.7,30.08,SSE,155,0.0,4.9,16,0.00,,,0.00,VWS V14.01,2013-01-02 14:32:00,
2013-01-02 06:37:00,42.1,-0.9,30.08,NNE,27,2.2,5.8,16,0.00,,,0.00,VWS V14.01,2013-01-02 14:37:00,
2013-01-02 06:42:00,42.1,-0.9,30.08,East,94,0.0,4.9,16,0.00,,,0.00,VWS V14.01,2013-01-02 14:42:00,
2013-01-02 06:47:00,42.3,-0.7,30.08,NE,37,3.1,5.8,16,0.00,,,0.00,VWS V14.01,2013-01-02 14:47:00,
2013-01-02 06:52:00,42.3,-0.7,30.08,NNE,20,5.4,5.4,16,0.00,,,0.00,VWS V14.01,2013-01-02 14:52:00,
2013-01-02 06:57:00,42.3,-0.7,30.08,ENE,58,2.7,5.4,16,0.00,,,0.00,VWS V14.01,2013-01-02 14:57:00,
2013-01-02 07:02:00,42.3,-0.7,30.08,ENE,69,6.7,6.7,16,0.00,,,0.00,VWS V14.01,2013-01-02 15:02:00,
2013-01-02 07:07:00,42.4,-4.9,30.08,ENE,65,3.6,3.6,13,0.00,,,0.00,VWS V14.01,2013-01-02 15:07:00,
2013-01-02 07:13:00,42.4,-4.9,30.08,NE,46,4.0,4.0,13,0.00,,,0.00,VWS V14.01,2013-01-02 15:13:00,
2013-01-02 07:18:00,42.4,-4.9,30.08,ENE,63,6.3,6.3,13,0.00,,,0.00,VWS V14.01,2013-01-02 15:18:00,
2013-01-02 07:23:00,42.4,-4.9,30.08,NNE,17,2.2,6.3,13,0.00,,,0.00,VWS V14.01,2013-01-02 15:23:00,
2013-01-02 07:28:00,42.4,-4.9,30.08,NE,44,4.9,5.4,13,0.00,,,0.00,VWS V14.01,2013-01-02 15:28:00,
2013-01-02 07:33:00,42.6,-4.8,30.08,NNE,19,6.3,9.6,13,0.00,,,0.00,VWS V14.01,2013-01-02 15:33:00,
2013-01-02 07:38:00,42.6,-4.8,30.08,NE,52,4.0,5.8,13,0.00,,,0.00,VWS V14.01,2013-01-02 15:38:00,
2013-01-02 07:43:00,42.8,-4.6,30.08,East,82,3.1,5.4,13,0.00,,,0.00,VWS V14.01,2013-01-02 15:43:00,
2013-01-02 07:48:00,42.8,-4.6,30.08,ENE,64,0.0,8.7,13,0.00,,,0.00,VWS V14.01,2013-01-02 15:48:00,
2013-01-02 07:53:00,42.8,-4.6,30.08,NNE,16,2.2,4.9,13,0.00,,,0.00,VWS V14.01,2013-01-02 15:53:00,
2013-01-02 07:58:00,43.0,-4.5,30.08,ENE,76,3.6,5.4,13,0.00,,,0.00,VWS V14.01,2013-01-02 15:58:00,
2013-01-02 08:03:00,43.2,-4.3,30.08,NNW,339,2.7,4.9,13,0.00,,,0.00,VWS V14.01,2013-01-02 16:03:00,
2013-01-02 08:08:00,43.2,-4.3,30.08,NE,49,5.4,5.4,13,0.00,,,0.00,VWS V14.01,2013-01-02 16:08:00,
2013-01-02 08:13:00,43.5,-4.1,30.11,SE,143,3.1,7.6,13,0.00,,,0.00,VWS V14.01,2013-01-02 16:13:00,
2013-01-02 08:18:00,44.1,-3.6,30.11,SSE,147,5.8,5.8,13,0.00,,,0.00,VWS V14.01,2013-01-02 16:18:00,
2013-01-02 08:23:00,44.4,-3.3,30.11,NNE,30,5.8,9.6,13,0.00,,,0.00,VWS V14.01,2013-01-02 16:23:00,
2013-01-02 08:28:00,44.8,-4.7,30.08,East,93,6.3,6.3,12,0.00,,,0.00,VWS V14.01,2013-01-02 16:28:00,
2013-01-02 08:33:00,45.1,-4.4,30.08,SSE,166,4.9,6.3,12,0.00,,,0.00,VWS V14.01,2013-01-02 16:33:00,
2013-01-02 08:38:00,45.5,-4.2,30.08,SSE,152,5.4,5.4,12,0.00,,,0.00,VWS V14.01,2013-01-02 16:38:00,
2013-01-02 08:43:00,45.7,-4.0,30.08,ENE,64,5.4,6.3,12,0.00,,,0.00,VWS V14.01,2013-01-02 16:43:00,
2013-01-02 08:48:00,45.9,-3.9,30.08,ENE,59,3.1,6.3,12,0.00,,,0.00,VWS V14.01,2013-01-02 16:48:00,
2013-01-02 08:53:00,46.2,1.1,30.08,NNE,29,5.4,8.3,15,0.00,,,0.00,VWS V14.01,2013-01-02 16:53:00,
2013-01-02 08:58:00,46.4,-0.2,30.08,ENE,74,5.4,5.4,14,0.00,,,0.00,VWS V14.01,2013-01-02 16:58:00,
2013-01-02 09:03:00,46.8,0.1,30.08,ESE,107,7.6,7.6,14,0.00,,,0.00,VWS V14.01,2013-01-02 17:03:00,
2013-01-02 09:08:00,46.9,0.2,30.08,NE,39,4.0,6.3,14,0.00,,,0.00,VWS V14.01,2013-01-02 17:08:00,
2013-01-02 09:13:00,47.1,0.4,30.08,North,8,5.8,5.8,14,0.00,,,0.00,VWS V14.01,2013-01-02 17:13:00,
2013-01-02 09:18:00,47.3,0.5,30.08,East,89,4.9,4.9,14,0.00,,,0.00,VWS V14.01,2013-01-02 17:18:00,
2013-01-02 09:23:00,47.5,0.7,30.08,NE,39,5.8,5.8,14,0.00,,,0.00,VWS V14.01,2013-01-02 17:23:00,
2013-01-02 09:28:00,47.5,0.7,30.08,South,170,2.2,3.1,14,0.00,,,0.00,VWS V14.01,2013-01-02 17:28:00,
2013-01-02 09:33:00,47.7,0.8,30.08,East,100,2.7,7.6,14,0.00,,,0.00,VWS V14.01,2013-01-02 17:33:00,
2013-01-02 09:38:00,47.8,1.0,30.08,SE,126,3.1,3.1,14,0.00,,,0.00,VWS V14.01,2013-01-02 17:38:00,
2013-01-02 09:43:00,48.2,1.2,30.08,East,82,3.6,4.0,14,0.00,,,0.00,VWS V14.01,2013-01-02 17:43:00,
2013-01-02 09:48:00,48.4,1.4,30.08,ENE,76,3.1,3.1,14,0.00,,,0.00,VWS V14.01,2013-01-02 17:48:00,
2013-01-02 09:53:00,48.6,1.5,30.08,East,87,3.6,3.6,14,0.00,,,0.00,VWS V14.01,2013-01-02 17:53:00,
2013-01-02 09:58:00,48.6,1.5,30.08,ENE,60,5.8,5.8,14,0.00,,,0.00,VWS V14.01,2013-01-02 17:58:00,
2013-01-02 10:03:00,48.7,1.7,30.08,NNE,21,5.4,8.1,14,0.00,,,0.00,VWS V14.01,2013-01-02 18:03:00,
2013-01-02 10:08:00,48.9,1.8,30.08,ESE,112,4.0,7.6,14,0.00,,,0.00,VWS V14.01,2013-01-02 18:08:00,
2013-01-02 10:13:00,49.3,2.1,30.11,North,0,5.4,5.4,14,0.00,,,0.00,VWS V14.01,2013-01-02 18:13:00,
2013-01-02 10:18:00,49.5,2.3,30.11,East,94,4.9,4.9,14,0.00,,,0.00,VWS V14.01,2013-01-02 18:18:00,
2013-01-02 10:23:00,49.8,2.5,30.11,ESE,115,3.6,5.8,14,0.00,,,0.00,VWS V14.01,2013-01-02 18:23:00,
2013-01-02 10:28:00,50.2,2.8,30.11,ENE,68,3.1,3.1,14,0.00,,,0.00,VWS V14.01,2013-01-02 18:28:00,
2013-01-02 10:33:00,50.4,3.0,30.11,ENE,66,4.0,4.0,14,0.00,,,0.00,VWS V14.01,2013-01-02 18:33:00,
2013-01-02 10:38:00,50.4,3.0,30.11,SSW,196,5.4,5.4,14,0.00,,,0.00,VWS V14.01,2013-01-02 18:38:00,
2013-01-02 10:43:00,50.5,3.1,30.11,NNE,19,3.6,4.9,14,0.00,,,0.00,VWS V14.01,2013-01-02 18:43:00,
2013-01-02 10:48:00,50.7,3.3,30.11,North,2,8.7,8.7,14,0.00,,,0.00,VWS V14.01,2013-01-02 18:48:00,
2013-01-02 10:53:00,50.9,3.4,30.11,SE,128,5.4,5.4,14,0.00,,,0.00,VWS V14.01,2013-01-02 18:53:00,
2013-01-02 10:58:00,51.1,3.6,30.08,NE,41,3.6,8.1,14,0.00,,,0.00,VWS V14.01,2013-01-02 18:58:00,
2013-01-02 11:03:00,51.3,3.7,30.08,SE,146,2.7,6.3,14,0.00,,,0.00,VWS V14.01,2013-01-02 19:03:00,
2013-01-02 11:08:00,51.3,3.7,30.08,North,11,4.9,5.8,14,0.00,,,0.00,VWS V14.01,2013-01-02 19:08:00,
2013-01-02 11:13:00,51.4,3.8,30.08,East,98,5.4,5.4,14,0.00,,,0.00,VWS V14.01,2013-01-02 19:13:00,
2013-01-02 11:18:00,51.6,4.0,30.08,NNE,18,7.6,7.6,14,0.00,,,0.00,VWS V14.01,2013-01-02 19:18:00,
2013-01-02 11:23:00,51.6,4.0,30.08,ESE,114,8.7,8.7,14,0.00,,,0.00,VWS V14.01,2013-01-02 19:23:00,
2013-01-02 11:28:00,51.8,2.5,30.08,North,5,4.0,4.0,13,0.00,,,0.00,VWS V14.01,2013-01-02 19:28:00,
2013-01-02 11:33:00,52.0,2.7,30.08,NNE,29,5.4,5.4,13,0.00,,,0.00,VWS V14.01,2013-01-02 19:33:00,
2013-01-02 11:38:00,52.2,2.8,30.08,NE,50,3.1,4.0,13,0.00,,,0.00,VWS V14.01,2013-01-02 19:38:00,
2013-01-02 11:43:00,52.3,3.0,30.08,North,0,7.6,7.6,13,0.00,,,0.00,VWS V14.01,2013-01-02 19:43:00,
2013-01-02 11:48:00,52.2,2.8,30.08,ESE,104,5.8,5.8,13,0.00,,,0.00,VWS V14.01,2013-01-02 19:48:00,
2013-01-02 11:53:00,52.3,3.0,30.08,NNW,344,10.5,10.5,13,0.00,,,0.00,VWS V14.01,2013-01-02 19:53:00,
2013-01-02 11:58:00,52.5,3.1,30.08,ENE,60,4.0,8.7,13,0.00,,,0.00,VWS V14.01,2013-01-02 19:58:00,
2013-01-02 12:03:00,52.2,2.8,30.08,SE,132,6.3,8.1,13,0.00,,,0.00,VWS V14.01,2013-01-02 20:03:00,
2013-01-02 12:08:00,52.0,2.7,30.05,North,357,7.6,7.6,13,0.00,,,0.00,VWS V14.01,2013-01-02 20:08:00,
2013-01-02 12:13:00,52.2,2.8,30.05,ESE,112,3.6,3.6,13,0.00,,,0.00,VWS V14.01,2013-01-02 20:13:00,
2013-01-02 12:18:00,52.9,3.4,30.05,NNW,348,5.8,5.8,13,0.00,,,0.00,VWS V14.01,2013-01-02 20:18:00,
2013-01-02 12:23:00,53.2,3.7,30.05,SE,127,3.6,4.9,13,0.00,,,0.00,VWS V14.01,2013-01-02 20:23:00,
2013-01-02 12:28:00,53.4,3.8,30.05,NNW,331,5.4,8.3,13,0.00,,,0.00,VWS V14.01,2013-01-02 20:28:00,
2013-01-02 12:33:00,53.4,3.8,30.05,NE,43,3.1,5.8,13,0.00,,,0.00,VWS V14.01,2013-01-02 20:33:00,
2013-01-02 12:38:00,53.2,3.7,30.05,ENE,59,5.8,5.8,13,0.00,,,0.00,VWS V14.01,2013-01-02 20:38:00,
2013-01-02 12:43:00,53.2,3.7,30.05,East,87,7.6,7.6,13,0.00,,,0.00,VWS V14.01,2013-01-02 20:43:00,
2013-01-02 12:48:00,53.1,3.5,30.05,North,11,5.8,5.8,13,0.00,,,0.00,VWS V14.01,2013-01-02 20:48:00,
2013-01-02 12:53:00,52.7,3.2,30.05,North,0,3.1,3.6,13,0.00,,,0.00,VWS V14.01,2013-01-02 20:53:00,
2013-01-02 12:58:00,52.9,3.4,30.05,NNE,20,2.7,3.6,13,0.00,,,0.00,VWS V14.01,2013-01-02 20:58:00,
2013-01-02 13:03:00,52.9,3.4,30.05,NNE,24,5.8,6.3,13,0.00,,,0.00,VWS V14.01,2013-01-02 21:03:00,
2013-01-02 13:08:00,53.1,3.5,30.05,NNE,20,8.3,8.3,13,0.00,,,0.00,VWS V14.01,2013-01-02 21:08:00,
2013-01-02 13:13:00,53.1,3.5,30.05,ESE,117,2.7,4.9,13,0.00,,,0.00,VWS V14.01,2013-01-02 21:13:00,
2013-01-02 13:18:00,53.1,3.5,30.05,ESE,109,3.1,4.9,13,0.00,,,0.00,VWS V14.01,2013-01-02 21:18:00,
2013-01-02 13:23:00,53.4,3.8,30.05,East,84,4.9,4.9,13,0.00,,,0.00,VWS V14.01,2013-01-02 21:23:00,
2013-01-02 13:28:00,53.2,3.7,30.02,ESE,123,2.7,4.0,13,0.00,,,0.00,VWS V14.01,2013-01-02 21:28:00,
2013-01-02 13:33:00,53.4,3.8,30.02,NE,45,5.4,5.8,13,0.00,,,0.00,VWS V14.01,2013-01-02 21:33:00,
2013-01-02 13:38:00,53.2,3.7,30.02,NNE,13,6.3,8.1,13,0.00,,,0.00,VWS V14.01,2013-01-02 21:38:00,
2013-01-02 13:43:00,53.1,3.5,30.02,NE,39,3.6,4.0,13,0.00,,,0.00,VWS V14.01,2013-01-02 21:43:00,
2013-01-02 13:48:00,53.2,3.7,30.02,NNE,31,4.0,5.4,13,0.00,,,0.00,VWS V14.01,2013-01-02 21:48:00,
2013-01-02 13:53:00,53.2,3.7,30.02,ESE,109,7.6,8.3,13,0.00,,,0.00,VWS V14.01,2013-01-02 21:53:00,
2013-01-02 13:58:00,53.4,3.8,30.02,NE,47,5.4,5.4,13,0.00,,,0.00,VWS V14.01,2013-01-02 21:58:00,
2013-01-02 14:03:00,53.6,4.0,30.02,East,100,5.4,5.8,13,0.00,,,0.00,VWS V14.01,2013-01-02 22:03:00,
2013-01-02 14:08:00,54.0,4.2,30.02,NNE,22,4.0,7.6,13,0.00,,,0.00,VWS V14.01,2013-01-02 22:08:00,
2013-01-02 14:13:00,54.1,4.4,30.02,NNE,33,3.1,3.6,13,0.00,,,0.00,VWS V14.01,2013-01-02 22:13:00,
2013-01-02 14:18:00,54.1,4.4,30.02,NE,36,5.8,8.7,13,0.00,,,0.00,VWS V14.01,2013-01-02 22:18:00,
2013-01-02 14:23:00,54.0,4.2,30.02,NNE,29,5.4,6.3,13,0.00,,,0.00,VWS V14.01,2013-01-02 22:23:00,
2013-01-02 14:28:00,54.1,4.4,30.02,North,357,3.1,5.4,13,0.00,,,0.00,VWS V14.01,2013-01-02 22:28:00,
2013-01-02 14:33:00,54.3,4.5,30.02,ENE,62,5.4,5.8,13,0.00,,,0.00,VWS V14.01,2013-01-02 22:33:00,
2013-01-02 14:38:00,54.5,4.7,30.02,NE,36,3.6,5.8,13,0.00,,,0.00,VWS V14.01,2013-01-02 22:38:00,
2013-01-02 14:43:00,54.5,4.7,30.02,NE,44,3.6,3.6,13,0.00,,,0.00,VWS V14.01,2013-01-02 22:43:00,
2013-01-02 14:49:00,54.9,5.0,30.02,North,357,4.0,8.1,13,0.00,,,0.00,VWS V14.01,2013-01-02 22:49:00,
2013-01-02 14:54:00,54.7,4.8,30.02,NNW,331,2.7,4.0,13,0.00,,,0.00,VWS V14.01,2013-01-02 22:54:00,
2013-01-02 14:59:00,54.5,4.7,30.02,NNE,17,5.4,6.7,13,0.00,,,0.00,VWS V14.01,2013-01-02 22:59:00,
2013-01-02 15:04:00,54.3,4.5,30.02,North,0,3.6,6.3,13,0.00,,,0.00,VWS V14.01,2013-01-02 23:04:00,
2013-01-02 15:09:00,54.3,4.5,30.02,NE,56,2.7,3.6,13,0.00,,,0.00,VWS V14.01,2013-01-02 23:09:00,
2013-01-02 15:14:00,54.7,4.8,30.02,East,88,4.9,4.9,13,0.00,,,0.00,VWS V14.01,2013-01-02 23:14:00,
2013-01-02 15:19:00,54.9,5.0,30.02,ENE,76,3.1,5.4,13,0.00,,,0.00,VWS V14.01,2013-01-02 23:19:00,
2013-01-02 15:24:00,54.7,4.8,30.02,NNE,32,4.0,7.6,13,0.00,,,0.00,VWS V14.01,2013-01-02 23:24:00,
2013-01-02 15:29:00,54.5,4.7,30.02,NE,45,5.4,5.4,13,0.00,,,0.00,VWS V14.01,2013-01-02 23:29:00,
2013-01-02 15:34:00,54.5,4.7,30.02,NE,41,3.6,5.4,13,0.00,,,0.00,VWS V14.01,2013-01-02 23:34:00,
2013-01-02 15:39:00,54.1,4.4,30.02,NNE,33,3.1,5.8,13,0.00,,,0.00,VWS V14.01,2013-01-02 23:39:00,
2013-01-02 15:44:00,53.8,4.1,30.02,North,4,7.6,7.6,13,0.00,,,0.00,VWS V14.01,2013-01-02 23:44:00,
2013-01-02 15:49:00,53.6,4.0,30.02,North,10,5.8,5.8,13,0.00,,,0.00,VWS V14.01,2013-01-02 23:49:00,
2013-01-02 15:54:00,53.4,3.8,30.02,North,1,3.6,3.6,13,0.00,,,0.00,VWS V14.01,2013-01-02 23:54:00,
2013-01-02 15:59:00,53.2,3.7,30.02,NE,51,3.1,7.6,13,0.00,,,0.00,VWS V14.01,2013-01-02 23:59:00,
2013-01-02 16:04:00,53.2,3.7,30.02,ESE,104,3.6,3.6,13,0.00,,,0.00,VWS V14.01,2013-01-03 00:04:00,
2013-01-02 16:09:00,53.1,3.5,30.02,NE,39,0.0,3.6,13,0.00,,,0.00,VWS V14.01,2013-01-03 00:09:00,
2013-01-02 16:14:00,52.9,3.4,30.02,NNE,27,3.1,3.1,13,0.00,,,0.00,VWS V14.01,2013-01-03 00:14:00,
2013-01-02 16:19:00,52.9,3.4,30.02,NE,36,3.6,4.9,13,0.00,,,0.00,VWS V14.01,2013-01-03 00:19:00,
2013-01-02 16:24:00,52.5,3.1,29.99,NNE,18,2.7,3.6,13,0.00,,,0.00,VWS V14.01,2013-01-03 00:24:00,
2013-01-02 16:29:00,52.3,3.0,29.99,NNW,341,2.7,2.7,13,0.00,,,0.00,VWS V14.01,2013-01-03 00:29:00,
2013-01-02 16:34:00,52.0,2.7,29.99,North,10,3.6,4.0,13,0.00,,,0.00,VWS V14.01,2013-01-03 00:34:00,
2013-01-02 16:39:00,51.6,4.0,29.99,NNW,342,3.6,4.5,14,0.00,,,0.00,VWS V14.01,2013-01-03 00:39:00,
2013-01-02 16:44:00,51.3,3.7,29.99,NE,46,2.7,3.6,14,0.00,,,0.00,VWS V14.01,2013-01-03 00:44:00,
2013-01-02 16:49:00,50.7,3.3,29.99,East,99,2.2,6.3,14,0.00,,,0.00,VWS V14.01,2013-01-03 00:49:00,
2013-01-02 16:54:00,50.2,2.8,29.99,SE,128,3.1,4.0,14,0.00,,,0.00,VWS V14.01,2013-01-03 00:54:00,
2013-01-02 16:59:00,49.6,2.4,29.99,ENE,74,7.2,7.2,14,0.00,,,0.00,VWS V14.01,2013-01-03 00:59:00,
2013-01-02 17:04:00,49.5,2.3,29.99,ESE,113,2.7,3.1,14,0.00,,,0.00,VWS V14.01,2013-01-03 01:04:00,
2013-01-02 17:09:00,49.1,2.0,29.99,ENE,69,4.0,4.0,14,0.00,,,0.00,VWS V14.01,2013-01-03 01:09:00,
2013-01-02 17:14:00,48.9,1.8,29.99,NNE,17,3.1,5.4,14,0.00,,,0.00,VWS V14.01,2013-01-03 01:14:00,
2013-01-02 17:19:00,48.6,1.5,29.99,NE,51,4.0,4.0,14,0.00,,,0.00,VWS V14.01,2013-01-03 01:19:00,
2013-01-02 17:24:00,48.4,1.4,29.99,NE,40,3.1,4.0,14,0.00,,,0.00,VWS V14.01,2013-01-03 01:24:00,
2013-01-02 17:29:00,48.0,1.1,29.99,North,7,4.0,5.4,14,0.00,,,0.00,VWS V14.01,2013-01-03 01:29:00,
2013-01-02 17:34:00,47.8,1.0,29.99,ENE,68,5.8,5.8,14,0.00,,,0.00,VWS V14.01,2013-01-03 01:34:00,
2013-01-02 17:39:00,47.7,0.8,29.99,North,10,2.7,3.6,14,0.00,,,0.00,VWS V14.01,2013-01-03 01:39:00,
2013-01-02 17:45:00,47.5,0.7,29.99,NNE,14,3.1,8.3,14,0.00,,,0.00,VWS V14.01,2013-01-03 01:45:00,
2013-01-02 17:50:00,47.3,0.5,29.99,North,5,2.7,3.1,14,0.00,,,0.00,VWS V14.01,2013-01-03 01:50:00,
2013-01-02 17:54:00,47.3,0.5,29.99,NE,43,3.1,3.1,14,0.00,,,0.00,VWS V14.01,2013-01-03 01:54:00,
2013-01-02 18:00:00,47.1,0.4,29.99,SE,131,2.2,3.1,14,0.00,,,0.00,VWS V14.01,2013-01-03 02:00:00,
2013-01-02 18:05:00,46.9,0.2,29.99,NNE,29,0.0,4.0,14,0.00,,,0.00,VWS V14.01,2013-01-03 02:05:00,
2013-01-02 18:10:00,46.9,0.2,29.99,NNE,28,5.8,5.8,14,0.00,,,0.00,VWS V14.01,2013-01-03 02:10:00,
2013-01-02 18:15:00,47.1,0.4,29.99,ENE,78,3.6,4.9,14,0.00,,,0.00,VWS V14.01,2013-01-03 02:15:00,
2013-01-02 18:20:00,47.3,0.5,29.99,North,9,3.1,5.8,14,0.00,,,0.00,VWS V14.01,2013-01-03 02:20:00,
2013-01-02 18:25:00,47.3,0.5,29.99,North,0,4.0,4.9,14,0.00,,,0.00,VWS V14.01,2013-01-03 02:25:00,
2013-01-02 18:30:00,47.3,0.5,29.99,ESE,108,3.1,3.1,14,0.00,,,0.00,VWS V14.01,2013-01-03 02:30:00,
2013-01-02 18:35:00,46.8,0.1,29.99,ESE,112,3.1,3.1,14,0.00,,,0.00,VWS V14.01,2013-01-03 02:35:00,
2013-01-02 18:40:00,46.4,-0.2,30.02,ESE,112,0.0,2.7,14,0.00,,,0.00,VWS V14.01,2013-01-03 02:40:00,
2013-01-02 18:45:00,45.9,0.8,30.02,ESE,112,0.0,0.0,15,0.00,,,0.00,VWS V14.01,2013-01-03 02:45:00,
2013-01-02 18:50:00,45.3,0.4,30.02,ESE,112,0.0,0.0,15,0.00,,,0.00,VWS V14.01,2013-01-03 02:50:00,
2013-01-02 18:55:00,45.0,0.1,30.02,ESE,112,0.0,0.0,15,0.00,,,0.00,VWS V14.01,2013-01-03 02:55:00,
2013-01-02 19:00:00,44.8,0.0,30.02,ESE,111,0.0,0.0,15,0.00,,,0.00,VWS V14.01,2013-01-03 03:00:00,
2013-01-02 19:05:00,44.4,-0.3,30.02,East,87,0.0,0.0,15,0.00,,,0.00,VWS V14.01,2013-01-03 03:05:00,
2013-01-02 19:10:00,44.6,-4.9,30.02,NNE,18,2.2,4.9,12,0.00,,,0.00,VWS V14.01,2013-01-03 03:10:00,
2013-01-02 19:15:00,45.3,0.4,30.02,NE,37,0.0,2.2,15,0.00,,,0.00,VWS V14.01,2013-01-03 03:15:00,
2013-01-02 19:20:00,46.0,1.0,30.02,ENE,74,0.0,3.6,15,0.00,,,0.00,VWS V14.01,2013-01-03 03:20:00,
2013-01-02 19:25:00,46.6,-0.1,30.02,ESE,115,2.7,3.6,14,0.00,,,0.00,VWS V14.01,2013-01-03 03:25:00,
2013-01-02 19:30:00,46.8,0.1,30.02,SE,132,2.7,2.7,14,0.00,,,0.00,VWS V14.01,2013-01-03 03:30:00,
2013-01-02 19:35:00,46.4,-0.2,30.02,SE,131,0.0,0.0,14,0.00,,,0.00,VWS V14.01,2013-01-03 03:35:00,
2013-01-02 19:40:00,46.0,1.0,30.05,East,87,0.0,0.0,15,0.00,,,0.00,VWS V14.01,2013-01-03 03:40:00,
2013-01-02 19:45:00,45.7,-4.0,30.05,East,87,0.0,0.0,12,0.00,,,0.00,VWS V14.01,2013-01-03 03:45:00,
2013-01-02 19:50:00,45.3,-4.3,30.05,ESE,115,0.0,0.0,12,0.00,,,0.00,VWS V14.01,2013-01-03 03:50:00,
2013-01-02 19:55:00,45.1,-4.4,30.05,ESE,114,0.0,0.0,12,0.00,,,0.00,VWS V14.01,2013-01-03 03:55:00,
2013-01-02 20:00:00,45.0,-4.6,30.05,NE,35,2.7,4.5,12,0.00,,,0.00,VWS V14.01,2013-01-03 04:00:00,
2013-01-02 20:05:00,44.6,-4.9,30.05,NE,34,0.0,0.0,12,0.00,,,0.00,VWS V14.01,2013-01-03 04:05:00,
2013-01-02 20:10:00,44.4,-3.3,30.05,NNE,30,2.7,2.7,13,0.00,,,0.00,VWS V14.01,2013-01-03 04:10:00,
2013-01-02 20:15:00,44.6,-4.9,30.05,North,3,0.0,0.0,12,0.00,,,0.00,VWS V14.01,2013-01-03 04:15:00,
2013-01-02 20:20:00,44.6,-4.9,30.05,ENE,60,3.1,3.1,12,0.00,,,0.00,VWS V14.01,2013-01-03 04:20:00,
2013-01-02 20:25:00,44.6,-4.9,30.05,ENE,64,0.0,0.0,12,0.00,,,0.00,VWS V14.01,2013-01-03 04:25:00,
2013-01-02 20:30:00,44.8,-4.7,30.05,East,99,0.0,0.0,12,0.00,,,0.00,VWS V14.01,2013-01-03 04:30:00,
2013-01-02 20:35:00,44.8,-4.7,30.05,East,98,0.0,0.0,12,0.00,,,0.00,VWS V14.01,2013-01-03 04:35:00,
2013-01-02 20:40:00,44.8,-4.7,30.05,North,0,2.7,2.7,12,0.00,,,0.00,VWS V14.01,2013-01-03 04:40:00,
2013-01-02 20:45:00,44.8,-4.7,30.05,North,10,2.2,2.2,12,0.00,,,0.00,VWS V14.01,2013-01-03 04:45:00,
2013-01-02 20:50:00,45.0,-4.6,30.05,NNE,12,0.0,0.0,12,0.00,,,0.00,VWS V14.01,2013-01-03 04:50:00,
2013-01-02 20:55:00,45.0,-4.6,30.05,NNE,27,0.0,0.0,12,0.00,,,0.00,VWS V14.01,2013-01-03 04:55:00,
2013-01-02 21:00:00,45.1,-4.4,30.05,NNE,15,7.2,7.2,12,0.00,,,0.00,VWS V14.01,2013-01-03 05:00:00,
2013-01-02 21:01:00,45.3,-4.3,30.05,NNE,21,0.0,2.7,12,0.00,,,0.00,VWS V14.01,2013-01-03 05:01:00,
2013-01-02 21:02:00,45.3,-4.3,30.05,NNE,27,0.0,2.7,12,0.00,,,0.00,VWS V14.01,2013-01-03 05:02:00,
2013-01-02 21:07:00,45.7,0.7,30.05,NE,54,0.0,5.4,15,0.00,,,0.00,VWS V14.01,2013-01-03 05:07:00,
2013-01-02 21:12:00,46.0,1.0,30.05,NNE,32,3.6,3.6,15,0.00,,,0.00,VWS V14.01,2013-01-03 05:12:00,
2013-01-02 21:17:00,46.2,1.1,30.05,NE,52,2.2,3.6,15,0.00,,,0.00,VWS V14.01,2013-01-03 05:17:00,
2013-01-02 21:22:00,46.2,1.1,30.05,NNE,22,3.1,3.1,15,0.00,,,0.00,VWS V14.01,2013-01-03 05:22:00,
2013-01-02 21:27:00,46.4,-0.2,30.02,East,79,3.6,3.6,14,0.00,,,0.00,VWS V14.01,2013-01-03 05:27:00,
2013-01-02 21:32:00,46.8,0.1,30.02,NE,45,2.7,4.9,14,0.00,,,0.00,VWS V14.01,2013-01-03 05:32:00,
2013-01-02 21:37:00,46.9,0.2,30.02,NE,56,2.2,2.2,14,0.00,,,0.00,VWS V14.01,2013-01-03 05:37:00,
2013-01-02 21:42:00,46.8,0.1,30.05,NNW,335,3.1,3.1,14,0.00,,,0.00,VWS V14.01,2013-01-03 05:42:00,
2013-01-02 21:47:00,46.8,0.1,30.05,North,357,2.7,3.1,14,0.00,,,0.00,VWS V14.01,2013-01-03 05:47:00,
2013-01-02 21:52:00,46.6,-0.1,30.05,NNE,21,2.7,3.6,14,0.00,,,0.00,VWS V14.01,2013-01-03 05:52:00,
2013-01-02 21:57:00,46.8,0.1,30.05,NNE,12,2.7,3.6,14,0.00,,,0.00,VWS V14.01,2013-01-03 05:57:00,
2013-01-02 22:02:00,46.8,0.1,30.05,East,101,0.0,4.9,14,0.00,,,0.00,VWS V14.01,2013-01-03 06:02:00,
2013-01-02 22:07:00,46.6,-0.1,30.05,NNE,15,2.2,2.2,14,0.00,,,0.00,VWS V14.01,2013-01-03 06:07:00,
2013-01-02 22:12:00,46.6,-0.1,30.05,ENE,73,4.0,4.0,14,0.00,,,0.00,VWS V14.01,2013-01-03 06:12:00,
2013-01-02 22:17:00,46.6,-0.1,30.05,NE,41,0.0,0.0,14,0.00,,,0.00,VWS V14.01,2013-01-03 06:17:00,
2013-01-02 22:22:00,46.6,-0.1,30.05,ESE,110,2.2,2.2,14,0.00,,,0.00,VWS V14.01,2013-01-03 06:22:00,
2013-01-02 22:27:00,46.6,-0.1,30.05,NW,319,2.7,2.7,14,0.00,,,0.00,VWS V14.01,2013-01-03 06:27:00,
2013-01-02 22:32:00,46.8,0.1,30.05,NE,54,3.6,4.0,14,0.00,,,0.00,VWS V14.01,2013-01-03 06:32:00,
2013-01-02 22:37:00,46.9,0.2,30.05,NE,36,2.7,3.1,14,0.00,,,0.00,VWS V14.01,2013-01-03 06:37:00,
2013-01-02 22:42:00,46.9,0.2,30.05,ENE,59,0.0,3.1,14,0.00,,,0.00,VWS V14.01,2013-01-03 06:42:00,
2013-01-02 22:47:00,46.9,0.2,30.05,NE,48,2.2,2.2,14,0.00,,,0.00,VWS V14.01,2013-01-03 06:47:00,
2013-01-02 22:52:00,46.8,-3.2,30.05,ENE,57,0.0,3.6,12,0.00,,,0.00,VWS V14.01,2013-01-03 06:52:00,
2013-01-02 22:57:00,46.8,-3.2,30.05,East,93,0.0,2.7,12,0.00,,,0.00,VWS V14.01,2013-01-03 06:57:00,
2013-01-02 23:02:00,46.8,-3.2,30.05,ESE,110,0.0,0.0,12,0.00,,,0.00,VWS V14.01,2013-01-03 07:02:00,
2013-01-02 23:07:00,46.8,-3.2,30.05,NE,45,2.7,2.7,12,0.00,,,0.00,VWS V14.01,2013-01-03 07:07:00,
2013-01-02 23:12:00,46.8,-3.2,30.05,NNE,29,2.2,2.2,12,0.00,,,0.00,VWS V14.01,2013-01-03 07:12:00,
2013-01-02 23:17:00,46.8,-3.2,30.05,NE,45,2.7,3.1,12,0.00,,,0.00,VWS V14.01,2013-01-03 07:17:00,
2013-01-02 23:22:00,46.8,-3.2,30.05,NE,39,4.0,4.0,12,0.00,,,0.00,VWS V14.01,2013-01-03 07:22:00,
2013-01-02 23:27:00,46.8,-3.2,30.05,NNE,21,0.0,2.7,12,0.00,,,0.00,VWS V14.01,2013-01-03 07:27:00,
2013-01-02 23:32:00,46.8,-3.2,30.05,North,353,2.7,2.7,12,0.00,,,0.00,VWS V14.01,2013-01-03 07:32:00,
2013-01-02 23:37:00,46.8,-3.2,30.05,NE,45,0.0,3.1,12,0.00,,,0.00,VWS V14.01,2013-01-03 07:37:00,
2013-01-02 23:42:00,46.8,-3.2,30.05,ENE,64,3.6,3.6,12,0.00,,,0.00,VWS V14.01,2013-01-03 07:42:00,
2013-01-02 23:47:00,46.8,-3.2,30.05,North,8,0.0,0.0,12,0.00,,,0.00,VWS V14.01,2013-01-03 07:47:00,
2013-01-02 23:52:00,46.6,-3.3,30.05,ENE,77,0.0,2.2,12,0.00,,,0.00,VWS V14.01,2013-01-03 07:52:00,
2013-01-02 23:57:00,46.6,-3.3,30.02,ESE,109,4.5,5.4,12,0.00,,,0.00,VWS V14.01,2013-01-03 07:57:00,